KSVN

Hunter AAF Airport

Savannah, Georgia, USA
METAR KSVN 220456Z AUTO 21005KT 10SM CLR 28/24 A2983 RMK AO2 SLP104 T02800238 403620238 $
Observed Flight Rules
Jun-22 @ 04:56 UTC (43 minutes ago) Visual Flight Rules
Wind Visibility Clouds
210° at 5 knots 10 miles
  • Clear skies
Temperatures Readings
Current 28°C / 82°F
Dewpoint 24°C / 75°F
Humidity 79%
Altimeter 29.83" Hg
Pressure 1010.4 hPa
Elevation 13
METAR KSVN 220456Z AUTO 21005KT 10SM CLR 28/24 A2983 RMK AO2 SLP104 T02800238 403620238 $
Observed Flight Rules
Jun-22 @ 04:56 UTC
(43 minutes ago)
VFR
Wind Visibility
210° at 5 knots 10 miles
Clouds
  • Clear skies
Temperature Dewpoint
28°C / 82°F 24°C / 75°F
Humidity Altimeter Pressure
79% 29.83" Hg 1010.4 hPa